createdAt,value
2022-12-01T00:04:05.080Z,102898.4
2022-12-01T00:06:35.972Z,102895.61000000002
2022-12-01T00:11:37.207Z,102904.45999999999
2022-12-01T00:24:06.921Z,102896.26000000001
2022-12-01T00:26:36.863Z,102899.12
2022-12-01T00:29:05.203Z,102896.91
2022-12-01T00:34:09.683Z,102896.66
2022-12-01T00:36:35.376Z,102894.84
2022-12-01T00:44:05.088Z,102898.54000000001
2022-12-01T00:54:05.379Z,102894.84
2022-12-01T00:56:35.075Z,102897.73
2022-12-01T00:59:05.182Z,102895.23999999999
2022-12-01T01:01:35.357Z,102895.04
2022-12-01T01:04:05.698Z,102894.03
2022-12-01T01:06:35.171Z,102890.3
2022-12-01T01:09:05.067Z,102894.91
2022-12-01T01:11:35.304Z,102888.34999999999
2022-12-01T01:16:35.471Z,102890.79999999999
2022-12-01T01:19:05.291Z,102891.67
2022-12-01T01:21:35.391Z,102891.48
2022-12-01T01:24:05.548Z,102888.49
2022-12-01T01:26:36.320Z,102883.97
2022-12-01T01:29:06.740Z,102889.14
2022-12-01T01:31:35.692Z,102890.19
2022-12-01T01:36:35.178Z,102895.15
2022-12-01T01:41:35.246Z,102907.06999999999
2022-12-01T01:44:24.999Z,102914.87999999999
2022-12-01T01:46:35.787Z,102918.80000000002
2022-12-01T01:49:07.736Z,102918.48
2022-12-01T01:51:44.242Z,102924.20999999999
2022-12-01T01:54:07.673Z,102927.78000000001
2022-12-01T01:56:36.192Z,102930.03000000001
2022-12-01T01:59:05.288Z,102929.25
2022-12-01T02:01:35.368Z,102926.78000000001
2022-12-01T02:04:06.467Z,102929.18999999999
2022-12-01T02:06:35.219Z,102923.11
2022-12-01T02:11:50.389Z,102918.14
2022-12-01T02:24:24.272Z,102909.3
2022-12-01T02:31:40.870Z,102905.07
2022-12-01T02:34:12.761Z,102907.6
2022-12-01T02:36:42.659Z,102911.40000000001
2022-12-01T02:49:11.303Z,102904.93
2022-12-01T02:51:38.889Z,102907.51000000001
2022-12-01T02:59:08.978Z,102894.23999999999
2022-12-01T03:04:24.621Z,102901.35
2022-12-01T03:11:43.130Z,102898.62000000001
2022-12-01T03:16:45.700Z,102898.83
2022-12-01T03:19:10.309Z,102900.73999999999
2022-12-01T03:21:39.730Z,102904.87000000001
2022-12-01T03:24:09.433Z,102903.01999999999
2022-12-01T03:26:37.070Z,102908.15
2022-12-01T03:29:09.478Z,102906.45999999999
2022-12-01T03:36:39.603Z,102893.91
2022-12-01T03:39:10.185Z,102894.82
2022-12-01T03:41:41.702Z,102895.37
2022-12-01T03:49:07.886Z,102905.79000000001
2022-12-01T03:54:13.718Z,102901.42000000001
2022-12-01T04:14:05.481Z,102917.24999999999
2022-12-01T04:26:37.858Z,102917.60999999999
2022-12-01T04:29:07.220Z,102920.23999999999
2022-12-01T04:39:06.916Z,102931.75000000001
2022-12-01T04:41:35.112Z,102923.33000000002
2022-12-01T04:44:05.162Z,102929.15000000001
2022-12-01T04:49:05.501Z,102924.44
2022-12-01T04:59:06.233Z,102916.11
2022-12-01T05:06:35.243Z,102921.97000000002
2022-12-01T05:09:06.009Z,102923.56
2022-12-01T05:11:36.364Z,102918.06999999999
2022-12-01T05:14:05.988Z,102919.71
2022-12-01T05:16:35.155Z,102924.99
2022-12-01T05:19:15.583Z,102926.66999999998
2022-12-01T05:29:05.866Z,102931.90999999999
2022-12-01T05:34:05.635Z,102928.88
2022-12-01T05:39:05.640Z,102927.0
2022-12-01T05:44:05.355Z,102928.27
2022-12-01T05:46:35.492Z,102924.65999999999
2022-12-01T05:51:35.389Z,102925.87000000001
2022-12-01T05:54:05.254Z,102924.83
2022-12-01T05:56:35.589Z,102924.26000000001
2022-12-01T06:01:35.311Z,102929.02999999998
2022-12-01T06:09:05.475Z,102932.96
2022-12-01T06:14:05.188Z,102933.15
2022-12-01T06:16:35.307Z,102932.8
2022-12-01T06:31:35.508Z,102928.44
2022-12-01T06:39:05.761Z,102933.52
2022-12-01T06:41:35.359Z,102932.91999999998
2022-12-01T06:46:35.866Z,102925.12
2022-12-01T06:49:05.194Z,102929.02999999998
2022-12-01T06:51:35.181Z,102929.85
2022-12-01T06:54:05.762Z,102939.78
2022-12-01T06:56:35.169Z,102947.06000000001
2022-12-01T06:59:05.572Z,102947.06000000001
2022-12-01T07:01:35.434Z,102957.81
2022-12-01T07:04:05.207Z,102962.13
2022-12-01T07:06:35.271Z,102955.32
2022-12-01T07:09:05.204Z,102958.99999999999
2022-12-01T07:11:35.988Z,102963.16999999998
2022-12-01T07:14:05.471Z,102963.16999999998
2022-12-01T07:16:35.231Z,102965.38
2022-12-01T07:19:05.215Z,102967.32999999999
2022-12-01T07:21:35.200Z,102969.56999999999
2022-12-01T07:24:06.127Z,102968.43
2022-12-01T07:26:35.229Z,102975.33
2022-12-01T07:29:05.287Z,102977.22000000002
2022-12-01T07:31:36.311Z,102978.28
2022-12-01T07:34:05.627Z,102978.09999999999
2022-12-01T07:36:35.359Z,102985.71999999999
2022-12-01T07:39:06.783Z,102987.06
2022-12-01T07:41:35.603Z,102984.69
2022-12-01T07:44:05.572Z,102984.13
2022-12-01T07:46:35.423Z,102985.88
2022-12-01T07:49:06.964Z,102986.43999999999
2022-12-01T07:51:35.351Z,102992.11
2022-12-01T07:54:06.771Z,102991.67
2022-12-01T07:56:35.216Z,102991.60999999999
2022-12-01T07:59:05.446Z,102991.96999999999
2022-12-01T08:01:35.949Z,102994.02
2022-12-01T08:04:06.044Z,102994.31999999999
2022-12-01T08:06:35.307Z,102993.92
2022-12-01T08:09:05.486Z,102991.5
2022-12-01T08:11:35.272Z,102994.59999999999
2022-12-01T08:14:05.538Z,102988.01000000001
2022-12-01T08:16:35.311Z,102992.63
2022-12-01T08:19:05.214Z,102992.02
2022-12-01T08:21:36.573Z,102995.77999999998
2022-12-01T08:24:06.432Z,102997.04999999999
2022-12-01T08:31:37.168Z,102998.56
2022-12-01T08:36:35.711Z,102999.45
2022-12-01T08:39:07.188Z,103000.66999999998
2022-12-01T08:41:35.217Z,103006.09
2022-12-01T08:44:05.391Z,103008.15
2022-12-01T08:46:36.037Z,103007.40000000001
2022-12-01T08:51:35.562Z,103008.65
2022-12-01T08:56:38.335Z,103004.10999999999
2022-12-01T09:01:45.970Z,103003.38999999998
2022-12-01T09:04:06.853Z,102995.94
2022-12-01T09:09:05.899Z,102995.62000000001
2022-12-01T09:11:35.840Z,102999.43000000001
2022-12-01T09:14:05.671Z,103000.68000000001
2022-12-01T09:16:35.720Z,103002.69
2022-12-01T09:19:05.714Z,102998.56
2022-12-01T09:21:36.541Z,103006.98999999999
2022-12-01T09:24:06.842Z,103010.49
2022-12-01T09:26:35.344Z,103002.86000000002
2022-12-01T09:29:07.744Z,103006.09999999999
2022-12-01T09:31:36.931Z,103000.55
2022-12-01T09:39:06.701Z,103000.73
2022-12-01T09:41:39.108Z,103003.8
2022-12-01T09:44:14.375Z,103003.16
2022-12-01T09:46:47.351Z,103010.18999999999
2022-12-01T10:04:11.157Z,102997.2
2022-12-01T10:06:38.744Z,102992.82
2022-12-01T10:11:39.595Z,102990.43999999999
2022-12-01T10:14:15.046Z,102986.32
2022-12-01T10:16:42.395Z,102983.23000000001
2022-12-01T10:19:12.487Z,102980.56999999999
2022-12-01T10:21:50.678Z,102981.26
2022-12-01T10:24:23.502Z,102975.92
2022-12-01T10:26:48.890Z,102975.71
2022-12-01T10:29:11.513Z,102973.23
2022-12-01T10:31:46.972Z,102972.34000000001
2022-12-01T10:34:10.184Z,102971.49999999999
2022-12-01T10:36:35.575Z,102968.58
2022-12-01T10:39:06.349Z,102969.46
2022-12-01T10:41:38.284Z,102969.87
2022-12-01T10:44:06.537Z,102972.45
2022-12-01T10:46:42.791Z,102969.65
2022-12-01T10:49:08.247Z,102967.80000000002
2022-12-01T10:51:46.387Z,102967.60999999999
2022-12-01T10:54:07.298Z,102966.28
2022-12-01T10:56:39.810Z,102962.01000000001
2022-12-01T10:59:22.233Z,102960.06
2022-12-01T11:01:35.523Z,102957.46999999999
2022-12-01T11:04:17.097Z,102959.09
2022-12-01T11:06:36.948Z,102952.62
2022-12-01T11:09:15.593Z,102945.17000000001
2022-12-01T11:11:37.948Z,102951.86000000002
2022-12-01T11:14:14.889Z,102943.65000000001
2022-12-01T11:16:44.600Z,102936.07999999999
2022-12-01T11:19:09.355Z,102935.99999999999
2022-12-01T11:21:45.825Z,102933.47000000002
2022-12-01T11:24:24.243Z,102934.45999999999
2022-12-01T11:26:35.430Z,102934.62
2022-12-01T11:29:16.840Z,102934.79999999999
2022-12-01T11:31:38.733Z,102934.11000000002
2022-12-01T11:34:14.114Z,102933.95000000001
2022-12-01T11:36:41.628Z,102934.90999999999
2022-12-01T11:39:05.500Z,102932.81999999999
2022-12-01T11:41:38.408Z,102940.48
2022-12-01T11:46:46.484Z,102939.43999999999
2022-12-01T11:54:13.904Z,102940.95
2022-12-01T11:56:35.591Z,102934.54999999999
2022-12-01T11:59:09.928Z,102932.31000000001
2022-12-01T12:01:49.044Z,102933.44
2022-12-01T12:04:22.005Z,102931.24
2022-12-01T12:06:44.946Z,102927.53
2022-12-01T12:09:23.563Z,102924.90000000001
2022-12-01T12:11:44.063Z,102923.85999999999
2022-12-01T12:14:22.690Z,102916.13
2022-12-01T12:16:49.057Z,102911.02
2022-12-01T12:21:45.788Z,102913.82
2022-12-01T12:24:22.711Z,102909.01
2022-12-01T12:26:41.146Z,102909.45
2022-12-01T12:29:18.509Z,102906.87000000001
2022-12-01T12:31:44.737Z,102907.91999999998
2022-12-01T12:34:21.713Z,102905.36
2022-12-01T12:36:45.403Z,102900.54000000001
2022-12-01T12:39:21.279Z,102896.97000000002
2022-12-01T12:45:03.540Z,102895.08
2022-12-01T12:49:22.486Z,102892.60999999999
2022-12-01T12:51:40.490Z,102896.46
2022-12-01T12:54:17.889Z,102893.95999999999
2022-12-01T12:56:36.484Z,102899.05000000002
2022-12-01T12:59:12.745Z,102904.9
2022-12-01T13:01:39.313Z,102900.48999999999
2022-12-01T13:04:11.311Z,102894.31
2022-12-01T13:06:39.307Z,102891.00000000001
2022-12-01T13:09:12.553Z,102888.43
2022-12-01T13:11:43.561Z,102891.99
2022-12-01T13:14:12.381Z,102885.84000000001
2022-12-01T13:16:40.696Z,102885.84000000001
2022-12-01T13:19:13.280Z,102888.98999999999
2022-12-01T14:29:30.203Z,102879.25
2022-12-01T14:32:01.318Z,102875.79000000001
2022-12-01T14:34:18.633Z,102874.27
2022-12-01T14:36:45.879Z,102873.49999999999
2022-12-01T14:39:15.286Z,102869.98000000001
2022-12-01T14:41:46.076Z,102870.35
2022-12-01T14:44:20.351Z,102868.92
2022-12-01T14:46:48.077Z,102864.69
2022-12-01T14:49:16.985Z,102862.94
2022-12-01T14:51:45.142Z,102860.73
2022-12-01T14:54:19.729Z,102864.55
2022-12-01T14:56:42.905Z,102865.01000000001
2022-12-01T14:59:15.043Z,102866.31999999999
2022-12-01T15:01:42.667Z,102863.33
2022-12-01T15:04:11.564Z,102864.01000000001
2022-12-01T15:06:41.878Z,102861.98999999999
2022-12-01T15:09:33.559Z,102862.48000000001
2022-12-01T15:11:51.654Z,102860.6
2022-12-01T15:14:22.720Z,102859.03000000001
2022-12-01T15:16:42.431Z,102861.70999999999
2022-12-01T15:19:23.440Z,102865.60999999999
2022-12-01T15:21:41.567Z,102870.02
2022-12-01T15:24:21.306Z,102874.04
2022-12-01T15:26:48.343Z,102876.21999999999
2022-12-01T15:29:15.125Z,102876.26000000001
2022-12-01T15:31:44.074Z,102875.23000000001
2022-12-01T15:34:15.837Z,102880.31000000001
2022-12-01T15:36:42.264Z,102875.72
2022-12-01T15:39:15.304Z,102878.44
2022-12-01T15:41:45.675Z,102881.7
2022-12-01T15:44:21.978Z,102884.75000000001
2022-12-01T15:46:42.876Z,102888.34
2022-12-01T15:49:18.751Z,102887.84000000001
2022-12-01T15:51:41.567Z,102889.95
2022-12-01T15:54:18.491Z,102891.5
2022-12-01T15:56:41.659Z,102890.66
2022-12-01T15:59:24.563Z,102887.48000000001
2022-12-01T16:01:43.455Z,102886.25
2022-12-01T16:04:18.225Z,102887.17
2022-12-01T16:06:42.009Z,102890.81000000001
2022-12-01T16:09:21.154Z,102890.03
2022-12-01T16:12:01.357Z,102889.47
2022-12-01T16:14:21.888Z,102889.77
2022-12-01T16:16:44.440Z,102888.67
2022-12-01T16:19:23.422Z,102886.21
2022-12-01T16:21:45.532Z,102891.00000000001
2022-12-01T16:24:14.690Z,102892.85
2022-12-01T16:26:46.872Z,102893.51999999999
2022-12-01T16:29:18.531Z,102892.97999999998
2022-12-01T16:31:58.763Z,102891.14
2022-12-01T16:34:43.990Z,102888.77
2022-12-01T16:36:41.601Z,102884.33
2022-12-01T16:39:12.242Z,102889.05
2022-12-01T16:41:43.739Z,102888.98999999999
2022-12-01T16:44:28.172Z,102887.82
2022-12-01T16:46:42.210Z,102890.78
2022-12-01T16:49:11.715Z,102892.36000000002
2022-12-01T16:51:55.474Z,102888.66
2022-12-01T16:54:11.570Z,102882.73999999999
2022-12-01T16:56:41.632Z,102887.46
2022-12-01T16:59:11.574Z,102893.42
2022-12-01T17:01:41.831Z,102888.51
2022-12-01T17:04:11.922Z,102898.45
2022-12-01T17:06:41.599Z,102900.15000000001
2022-12-01T17:09:11.947Z,102904.93
2022-12-01T17:11:41.618Z,102907.81999999999
2022-12-01T17:14:12.088Z,102906.81999999999
2022-12-01T17:19:11.642Z,102908.67000000001
2022-12-01T17:21:41.592Z,102911.04000000001
2022-12-01T17:24:11.590Z,102909.11000000002
2022-12-01T17:26:41.974Z,102904.56999999999
2022-12-01T17:31:42.657Z,102909.58
2022-12-01T17:34:11.545Z,102905.87000000001
2022-12-01T17:36:41.607Z,102904.73999999999
2022-12-01T17:39:11.880Z,102909.69
2022-12-01T17:44:11.588Z,102916.83
2022-12-01T17:49:12.465Z,102918.42
2022-12-01T17:51:41.695Z,102917.42
2022-12-01T17:54:11.553Z,102916.36000000002
2022-12-01T17:56:42.024Z,102915.88999999998
2022-12-01T17:59:11.754Z,102918.90000000001
2022-12-01T18:04:11.909Z,102917.1
2022-12-01T18:06:41.945Z,102917.42
2022-12-01T18:09:11.626Z,102916.94
2022-12-01T18:14:11.646Z,102919.40999999999
2022-12-01T18:19:11.870Z,102923.13999999998
2022-12-01T18:21:41.731Z,102925.55
2022-12-01T18:24:11.609Z,102925.2
2022-12-01T18:26:42.025Z,102927.98
2022-12-01T18:29:15.166Z,102922.92
2022-12-01T18:31:42.497Z,102923.08
2022-12-01T18:34:11.645Z,102920.43000000001
2022-12-01T18:36:41.675Z,102922.93999999999
2022-12-01T18:39:12.186Z,102925.51000000001
2022-12-01T18:46:41.963Z,102926.95000000001
2022-12-01T18:49:12.320Z,102923.19
2022-12-01T18:51:41.708Z,102923.16
2022-12-01T18:54:13.713Z,102930.07
2022-12-01T18:56:42.962Z,102926.20999999999
2022-12-01T18:59:12.546Z,102922.48999999999
2022-12-01T19:01:43.928Z,102917.09000000001
2022-12-01T19:04:13.536Z,102924.96
2022-12-01T19:06:42.566Z,102920.85999999999
2022-12-01T19:09:14.789Z,102919.56999999999
2022-12-01T19:11:42.442Z,102917.06999999999
2022-12-01T19:14:14.733Z,102917.53000000001
2022-12-01T19:16:42.165Z,102916.43
2022-12-01T19:21:47.150Z,102916.88999999998
2022-12-01T19:24:12.024Z,102921.3
2022-12-01T19:26:42.010Z,102918.59
2022-12-01T19:29:11.806Z,102920.19
2022-12-01T19:31:41.701Z,102912.83
2022-12-01T19:34:11.852Z,102915.87
2022-12-01T19:36:41.768Z,102913.77
2022-12-01T19:39:11.798Z,102915.47
2022-12-01T19:41:41.600Z,102920.07
2022-12-01T19:44:11.813Z,102919.76
2022-12-01T19:46:41.971Z,102926.50000000001
2022-12-01T19:49:11.611Z,102928.36
2022-12-01T19:51:41.898Z,102925.89
2022-12-01T19:54:13.970Z,102927.08
2022-12-01T19:56:42.197Z,102929.79000000001
2022-12-01T19:59:13.877Z,102929.76000000001
2022-12-01T20:01:41.852Z,102930.46999999999
2022-12-01T20:04:15.819Z,102929.76000000001
2022-12-01T20:06:41.756Z,102932.5
2022-12-01T20:09:11.965Z,102929.81
2022-12-01T20:16:42.011Z,102920.67
2022-12-01T20:19:11.889Z,102918.31
2022-12-01T20:21:42.536Z,102917.40999999999
2022-12-01T20:24:14.159Z,102913.53
2022-12-01T20:26:45.066Z,102914.72000000002
2022-12-01T20:29:14.002Z,102914.66
2022-12-01T20:31:43.277Z,102911.51
2022-12-01T20:34:14.206Z,102912.22
2022-12-01T20:36:41.979Z,102912.06999999999
2022-12-01T20:39:12.630Z,102911.43
2022-12-01T20:41:42.860Z,102910.93000000001
2022-12-01T20:44:13.062Z,102915.05
2022-12-01T20:46:44.248Z,102910.67
2022-12-01T20:49:13.906Z,102910.43999999999
2022-12-01T20:51:41.813Z,102908.20000000001
2022-12-01T20:54:28.309Z,102909.44
2022-12-01T20:56:41.660Z,102913.94
2022-12-01T21:09:13.817Z,102926.99
2022-12-01T21:11:54.679Z,102925.29
2022-12-01T21:14:16.864Z,102926.92
2022-12-01T21:19:16.981Z,102915.64000000001
2022-12-01T21:21:41.917Z,102918.46
2022-12-01T21:26:46.548Z,102911.1
2022-12-01T21:31:41.875Z,102910.24
2022-12-01T21:36:41.748Z,102907.43
2022-12-01T21:39:13.942Z,102905.51000000001
2022-12-01T21:44:14.418Z,102909.81
2022-12-01T21:46:42.308Z,102907.57
2022-12-01T21:49:16.732Z,102911.95
2022-12-01T21:51:41.679Z,102909.57
2022-12-01T21:54:15.410Z,102905.26
2022-12-01T21:56:42.323Z,102901.81
2022-12-01T21:59:17.967Z,102903.76000000001
2022-12-01T22:01:41.692Z,102902.20999999999
2022-12-01T22:04:16.059Z,102898.31999999999
2022-12-01T22:06:45.965Z,102896.12999999999
2022-12-01T22:11:46.228Z,102895.12999999999
2022-12-01T22:14:15.145Z,102894.89000000001
2022-12-01T22:16:44.302Z,102894.53000000001
2022-12-01T22:19:24.520Z,102891.85
2022-12-01T22:21:44.180Z,102890.48
2022-12-01T22:26:47.046Z,102892.4
2022-12-01T22:39:25.058Z,102891.55
2022-12-01T22:41:41.637Z,102884.83000000002
2022-12-01T22:44:12.167Z,102884.47000000002
2022-12-01T22:46:41.845Z,102880.32
2022-12-01T22:49:19.748Z,102884.53
2022-12-01T22:54:24.300Z,102882.36
2022-12-01T22:59:14.933Z,102883.99999999999
2022-12-01T23:04:19.330Z,102887.17
2022-12-01T23:06:52.164Z,102885.63999999998
2022-12-01T23:14:14.744Z,102874.78000000001
2022-12-01T23:16:41.716Z,102874.56
2022-12-01T23:19:11.998Z,102871.56999999999
2022-12-01T23:21:41.753Z,102870.01000000001
2022-12-01T23:24:16.832Z,102867.42
2022-12-01T23:26:44.249Z,102863.53
2022-12-01T23:29:11.875Z,102859.02
2022-12-01T23:31:42.619Z,102856.64
2022-12-01T23:34:14.348Z,102853.86000000002
2022-12-01T23:41:44.233Z,102854.24
2022-12-01T23:44:19.690Z,102851.83
2022-12-01T23:49:14.945Z,102858.40000000001
2022-12-01T23:51:45.874Z,102866.76
2022-12-01T23:54:17.316Z,102865.51999999999
2022-12-01T23:59:13.216Z,102863.62
